sensor_id;sensor_type;location;lat;lon;timestamp;pressure;altitude;pressure_sealevel;temperature;humidity
13422;BME280;6782;55.904;13.396;2023-02-13T00:01:54;102872.44;;;5.97;100.00
13422;BME280;6782;55.904;13.396;2023-02-13T00:04:43;102869.50;;;5.86;100.00
13422;BME280;6782;55.904;13.396;2023-02-13T00:07:30;102866.84;;;5.85;100.00
13422;BME280;6782;55.904;13.396;2023-02-13T00:10:17;102871.13;;;5.83;100.00
13422;BME280;6782;55.904;13.396;2023-02-13T00:13:05;102867.28;;;5.72;100.00
13422;BME280;6782;55.904;13.396;2023-02-13T00:15:56;102871.50;;;5.66;100.00
13422;BME280;6782;55.904;13.396;2023-02-13T00:18:44;102875.72;;;5.63;100.00
13422;BME280;6782;55.904;13.396;2023-02-13T00:21:33;102869.44;;;5.56;100.00
13422;BME280;6782;55.904;13.396;2023-02-13T00:24:20;102872.72;;;5.49;100.00
13422;BME280;6782;55.904;13.396;2023-02-13T00:27:08;102863.84;;;5.44;100.00
13422;BME280;6782;55.904;13.396;2023-02-13T00:29:55;102863.72;;;5.41;100.00
13422;BME280;6782;55.904;13.396;2023-02-13T00:32:42;102878.63;;;5.44;100.00
13422;BME280;6782;55.904;13.396;2023-02-13T00:35:30;102869.06;;;5.44;100.00
13422;BME280;6782;55.904;13.396;2023-02-13T00:38:19;102870.53;;;5.36;100.00
13422;BME280;6782;55.904;13.396;2023-02-13T00:41:07;102874.00;;;5.35;100.00
13422;BME280;6782;55.904;13.396;2023-02-13T00:43:54;102886.66;;;5.50;100.00
13422;BME280;6782;55.904;13.396;2023-02-13T00:46:41;102870.44;;;5.33;100.00
13422;BME280;6782;55.904;13.396;2023-02-13T00:49:28;102881.28;;;5.45;100.00
13422;BME280;6782;55.904;13.396;2023-02-13T00:52:15;102886.31;;;5.39;100.00
13422;BME280;6782;55.904;13.396;2023-02-13T00:55:05;102886.25;;;5.36;100.00
13422;BME280;6782;55.904;13.396;2023-02-13T00:57:53;102889.78;;;5.38;100.00
13422;BME280;6782;55.904;13.396;2023-02-13T01:00:40;102902.22;;;5.45;100.00
13422;BME280;6782;55.904;13.396;2023-02-13T01:03:27;102889.91;;;5.41;100.00
13422;BME280;6782;55.904;13.396;2023-02-13T01:06:15;102900.16;;;5.35;100.00
13422;BME280;6782;55.904;13.396;2023-02-13T01:09:02;102910.81;;;5.41;100.00
13422;BME280;6782;55.904;13.396;2023-02-13T01:11:51;102914.03;;;5.33;100.00
13422;BME280;6782;55.904;13.396;2023-02-13T01:14:38;102913.78;;;5.25;100.00
13422;BME280;6782;55.904;13.396;2023-02-13T01:17:25;102915.56;;;5.26;100.00
13422;BME280;6782;55.904;13.396;2023-02-13T01:20:13;102924.44;;;5.31;100.00
13422;BME280;6782;55.904;13.396;2023-02-13T01:23:01;102928.19;;;5.39;100.00
13422;BME280;6782;55.904;13.396;2023-02-13T01:25:49;102927.91;;;5.30;100.00
13422;BME280;6782;55.904;13.396;2023-02-13T01:28:38;102926.09;;;5.29;100.00
13422;BME280;6782;55.904;13.396;2023-02-13T01:31:25;102920.97;;;5.32;100.00
13422;BME280;6782;55.904;13.396;2023-02-13T01:34:12;102934.81;;;5.28;100.00
13422;BME280;6782;55.904;13.396;2023-02-13T01:37:00;102923.50;;;5.29;100.00
13422;BME280;6782;55.904;13.396;2023-02-13T01:39:47;102928.53;;;5.23;100.00
13422;BME280;6782;55.904;13.396;2023-02-13T01:42:35;102934.72;;;5.25;100.00
13422;BME280;6782;55.904;13.396;2023-02-13T01:45:25;102937.84;;;5.15;100.00
13422;BME280;6782;55.904;13.396;2023-02-13T01:48:16;102944.03;;;5.17;100.00
13422;BME280;6782;55.904;13.396;2023-02-13T01:51:06;102939.72;;;5.19;100.00
13422;BME280;6782;55.904;13.396;2023-02-13T01:53:57;102939.53;;;5.13;100.00
13422;BME280;6782;55.904;13.396;2023-02-13T01:56:49;102943.19;;;5.18;100.00
13422;BME280;6782;55.904;13.396;2023-02-13T01:59:43;102945.91;;;5.21;100.00
13422;BME280;6782;55.904;13.396;2023-02-13T02:02:38;102948.44;;;5.18;100.00
13422;BME280;6782;55.904;13.396;2023-02-13T02:05:29;102953.44;;;5.12;100.00
13422;BME280;6782;55.904;13.396;2023-02-13T02:08:18;102956.31;;;5.20;100.00
13422;BME280;6782;55.904;13.396;2023-02-13T02:11:10;102955.00;;;5.07;100.00
13422;BME280;6782;55.904;13.396;2023-02-13T02:14:01;102961.91;;;5.05;100.00
13422;BME280;6782;55.904;13.396;2023-02-13T02:16:49;102963.69;;;5.06;100.00
13422;BME280;6782;55.904;13.396;2023-02-13T02:19:40;102967.25;;;5.08;100.00
13422;BME280;6782;55.904;13.396;2023-02-13T02:26:24;102970.81;;;5.10;100.00
13422;BME280;6782;55.904;13.396;2023-02-13T02:29:23;102969.03;;;5.09;100.00
13422;BME280;6782;55.904;13.396;2023-02-13T02:32:37;102968.09;;;5.07;100.00
13422;BME280;6782;55.904;13.396;2023-02-13T02:35:35;102971.53;;;5.06;100.00
13422;BME280;6782;55.904;13.396;2023-02-13T02:38:39;102970.03;;;5.13;100.00
13422;BME280;6782;55.904;13.396;2023-02-13T02:41:38;102969.81;;;5.06;100.00
13422;BME280;6782;55.904;13.396;2023-02-13T02:44:31;102979.22;;;5.01;100.00
13422;BME280;6782;55.904;13.396;2023-02-13T02:47:23;102973.84;;;4.97;100.00
13422;BME280;6782;55.904;13.396;2023-02-13T02:50:36;102979.03;;;4.95;100.00
13422;BME280;6782;55.904;13.396;2023-02-13T02:53:32;102982.41;;;4.93;100.00
13422;BME280;6782;55.904;13.396;2023-02-13T02:56:26;102985.63;;;4.86;100.00
13422;BME280;6782;55.904;13.396;2023-02-13T02:59:16;102986.53;;;4.86;100.00
13422;BME280;6782;55.904;13.396;2023-02-13T03:02:24;102980.41;;;4.86;100.00
13422;BME280;6782;55.904;13.396;2023-02-13T03:05:43;102987.25;;;4.82;100.00
13422;BME280;6782;55.904;13.396;2023-02-13T03:08:53;102980.09;;;4.77;100.00
13422;BME280;6782;55.904;13.396;2023-02-13T03:11:59;102979.97;;;4.74;100.00
13422;BME280;6782;55.904;13.396;2023-02-13T03:15:05;102987.00;;;4.75;100.00
13422;BME280;6782;55.904;13.396;2023-02-13T03:17:53;102993.94;;;4.74;100.00
13422;BME280;6782;55.904;13.396;2023-02-13T03:21:12;102998.22;;;4.72;100.00
13422;BME280;6782;55.904;13.396;2023-02-13T03:24:24;102998.28;;;4.74;100.00
13422;BME280;6782;55.904;13.396;2023-02-13T03:27:19;103000.09;;;4.76;100.00
13422;BME280;6782;55.904;13.396;2023-02-13T03:30:38;102999.00;;;4.70;100.00
13422;BME280;6782;55.904;13.396;2023-02-13T03:33:54;103012.44;;;4.80;100.00
13422;BME280;6782;55.904;13.396;2023-02-13T03:36:46;103013.00;;;4.72;100.00
13422;BME280;6782;55.904;13.396;2023-02-13T03:39:56;103011.09;;;4.68;100.00
13422;BME280;6782;55.904;13.396;2023-02-13T03:42:51;103018.00;;;4.66;100.00
13422;BME280;6782;55.904;13.396;2023-02-13T03:45:43;103016.44;;;4.71;100.00
13422;BME280;6782;55.904;13.396;2023-02-13T03:48:50;103032.91;;;4.68;100.00
13422;BME280;6782;55.904;13.396;2023-02-13T03:51:59;103030.94;;;4.63;100.00
13422;BME280;6782;55.904;13.396;2023-02-13T03:54:49;103038.78;;;4.63;100.00
13422;BME280;6782;55.904;13.396;2023-02-13T03:57:59;103035.13;;;4.58;100.00
13422;BME280;6782;55.904;13.396;2023-02-13T04:01:07;103029.78;;;4.55;100.00
13422;BME280;6782;55.904;13.396;2023-02-13T04:04:00;103033.34;;;4.57;100.00
13422;BME280;6782;55.904;13.396;2023-02-13T04:06:54;103036.78;;;4.56;100.00
13422;BME280;6782;55.904;13.396;2023-02-13T04:09:45;103036.75;;;4.54;100.00
13422;BME280;6782;55.904;13.396;2023-02-13T04:12:37;103034.78;;;4.49;100.00
13422;BME280;6782;55.904;13.396;2023-02-13T04:15:28;103039.41;;;4.56;100.00
13422;BME280;6782;55.904;13.396;2023-02-13T04:18:20;103045.00;;;4.65;100.00
13422;BME280;6782;55.904;13.396;2023-02-13T04:21:09;103045.09;;;4.68;100.00
13422;BME280;6782;55.904;13.396;2023-02-13T04:23:56;103051.38;;;4.73;100.00
13422;BME280;6782;55.904;13.396;2023-02-13T04:26:45;103048.16;;;4.80;100.00
13422;BME280;6782;55.904;13.396;2023-02-13T04:29:33;103054.09;;;4.76;100.00
13422;BME280;6782;55.904;13.396;2023-02-13T04:32:20;103042.47;;;4.68;100.00
13422;BME280;6782;55.904;13.396;2023-02-13T04:35:07;103046.72;;;4.64;100.00
13422;BME280;6782;55.904;13.396;2023-02-13T04:37:56;103044.03;;;4.63;100.00
13422;BME280;6782;55.904;13.396;2023-02-13T04:40:43;103038.59;;;4.57;100.00
13422;BME280;6782;55.904;13.396;2023-02-13T04:43:31;103042.38;;;4.65;100.00
13422;BME280;6782;55.904;13.396;2023-02-13T04:46:18;103038.66;;;4.60;100.00
13422;BME280;6782;55.904;13.396;2023-02-13T04:49:05;103037.03;;;4.62;100.00
13422;BME280;6782;55.904;13.396;2023-02-13T04:51:53;103029.00;;;4.57;100.00
13422;BME280;6782;55.904;13.396;2023-02-13T04:54:40;103029.56;;;4.49;100.00
13422;BME280;6782;55.904;13.396;2023-02-13T04:57:27;103031.13;;;4.43;100.00
13422;BME280;6782;55.904;13.396;2023-02-13T05:00:18;103027.75;;;4.48;100.00
13422;BME280;6782;55.904;13.396;2023-02-13T05:03:06;103031.84;;;4.63;100.00
13422;BME280;6782;55.904;13.396;2023-02-13T05:05:53;103038.13;;;4.68;100.00
13422;BME280;6782;55.904;13.396;2023-02-13T05:08:40;103024.53;;;4.55;100.00
13422;BME280;6782;55.904;13.396;2023-02-13T05:11:27;103017.19;;;4.44;100.00
13422;BME280;6782;55.904;13.396;2023-02-13T05:14:15;103010.22;;;4.43;100.00
13422;BME280;6782;55.904;13.396;2023-02-13T05:17:03;103013.03;;;4.50;100.00
13422;BME280;6782;55.904;13.396;2023-02-13T05:19:50;102998.22;;;4.49;100.00
13422;BME280;6782;55.904;13.396;2023-02-13T05:22:42;103007.81;;;4.50;100.00
13422;BME280;6782;55.904;13.396;2023-02-13T05:25:47;102996.41;;;4.48;100.00
13422;BME280;6782;55.904;13.396;2023-02-13T05:28:34;102998.22;;;4.49;100.00
13422;BME280;6782;55.904;13.396;2023-02-13T05:31:39;102998.78;;;4.64;100.00
13422;BME280;6782;55.904;13.396;2023-02-13T05:34:29;102988.03;;;4.56;100.00
13422;BME280;6782;55.904;13.396;2023-02-13T05:37:16;102982.72;;;4.55;100.00
13422;BME280;6782;55.904;13.396;2023-02-13T05:40:04;102979.97;;;4.50;100.00
13422;BME280;6782;55.904;13.396;2023-02-13T05:42:53;102982.66;;;4.52;100.00
13422;BME280;6782;55.904;13.396;2023-02-13T05:45:40;102978.63;;;4.37;100.00
13422;BME280;6782;55.904;13.396;2023-02-13T05:48:27;102982.09;;;4.36;100.00
13422;BME280;6782;55.904;13.396;2023-02-13T05:51:17;102978.63;;;4.37;100.00
13422;BME280;6782;55.904;13.396;2023-02-13T05:54:04;102983.03;;;4.38;100.00
13422;BME280;6782;55.904;13.396;2023-02-13T05:56:51;102978.44;;;4.33;100.00
13422;BME280;6782;55.904;13.396;2023-02-13T05:59:38;102979.38;;;4.35;100.00
13422;BME280;6782;55.904;13.396;2023-02-13T06:02:25;102973.16;;;4.31;100.00
13422;BME280;6782;55.904;13.396;2023-02-13T06:05:12;102967.16;;;4.34;100.00
13422;BME280;6782;55.904;13.396;2023-02-13T06:08:01;102967.06;;;4.31;100.00
13422;BME280;6782;55.904;13.396;2023-02-13T06:10:48;102964.25;;;4.26;100.00
13422;BME280;6782;55.904;13.396;2023-02-13T06:13:35;102954.66;;;4.25;100.00
13422;BME280;6782;55.904;13.396;2023-02-13T06:16:25;102958.22;;;4.27;100.00
13422;BME280;6782;55.904;13.396;2023-02-13T06:19:12;102942.50;;;4.26;100.00
13422;BME280;6782;55.904;13.396;2023-02-13T06:21:59;102950.13;;;4.21;100.00
13422;BME280;6782;55.904;13.396;2023-02-13T06:24:48;102941.47;;;4.22;100.00
13422;BME280;6782;55.904;13.396;2023-02-13T06:27:35;102936.25;;;4.22;100.00
13422;BME280;6782;55.904;13.396;2023-02-13T06:30:22;102931.69;;;4.17;100.00
13422;BME280;6782;55.904;13.396;2023-02-13T06:33:09;102930.91;;;4.19;100.00
13422;BME280;6782;55.904;13.396;2023-02-13T06:35:57;102925.47;;;4.13;100.00
13422;BME280;6782;55.904;13.396;2023-02-13T06:38:44;102931.63;;;4.15;100.00
13422;BME280;6782;55.904;13.396;2023-02-13T06:41:34;102930.00;;;4.19;100.00
13422;BME280;6782;55.904;13.396;2023-02-13T06:44:21;102919.53;;;4.17;100.00
13422;BME280;6782;55.904;13.396;2023-02-13T06:47:09;102920.47;;;4.19;100.00
13422;BME280;6782;55.904;13.396;2023-02-13T06:49:56;102917.97;;;4.22;100.00
13422;BME280;6782;55.904;13.396;2023-02-13T06:52:46;102913.63;;;4.23;100.00
13422;BME280;6782;55.904;13.396;2023-02-13T06:55:14;102921.16;;;4.37;100.00
13422;BME280;6782;55.904;13.396;2023-02-13T06:57:44;102908.94;;;4.36;100.00
13422;BME280;6782;55.904;13.396;2023-02-13T07:00:13;102913.53;;;4.43;100.00
13422;BME280;6782;55.904;13.396;2023-02-13T07:02:41;102908.97;;;4.38;100.00
13422;BME280;6782;55.904;13.396;2023-02-13T07:05:10;102902.22;;;4.44;100.00
13422;BME280;6782;55.904;13.396;2023-02-13T07:07:39;102891.06;;;4.49;100.00
13422;BME280;6782;55.904;13.396;2023-02-13T07:10:08;102884.81;;;4.43;100.00
13422;BME280;6782;55.904;13.396;2023-02-13T07:12:36;102881.34;;;4.44;100.00
13422;BME280;6782;55.904;13.396;2023-02-13T07:15:06;102869.13;;;4.43;100.00
13422;BME280;6782;55.904;13.396;2023-02-13T07:17:34;102871.16;;;4.52;100.00
13422;BME280;6782;55.904;13.396;2023-02-13T07:20:03;102865.88;;;4.51;100.00
13422;BME280;6782;55.904;13.396;2023-02-13T07:22:31;102865.22;;;4.56;100.00
13422;BME280;6782;55.904;13.396;2023-02-13T07:24:58;102877.13;;;4.98;100.00
13422;BME280;6782;55.904;13.396;2023-02-13T07:27:26;102870.03;;;4.94;100.00
13422;BME280;6782;55.904;13.396;2023-02-13T07:29:54;102865.38;;;4.86;100.00
13422;BME280;6782;55.904;13.396;2023-02-13T07:32:24;102853.56;;;4.97;100.00
13422;BME280;6782;55.904;13.396;2023-02-13T07:34:52;102859.69;;;4.97;100.00
13422;BME280;6782;55.904;13.396;2023-02-13T07:37:19;102867.47;;;5.23;100.00
13422;BME280;6782;55.904;13.396;2023-02-13T07:39:48;102844.41;;;5.11;100.00
13422;BME280;6782;55.904;13.396;2023-02-13T07:42:15;102837.34;;;5.08;100.00
13422;BME280;6782;55.904;13.396;2023-02-13T07:44:43;102826.22;;;5.14;100.00
13422;BME280;6782;55.904;13.396;2023-02-13T07:47:11;102820.88;;;5.11;100.00
13422;BME280;6782;55.904;13.396;2023-02-13T07:49:39;102811.19;;;5.08;100.00
13422;BME280;6782;55.904;13.396;2023-02-13T07:52:08;102807.66;;;5.06;100.00
13422;BME280;6782;55.904;13.396;2023-02-13T07:54:36;102807.22;;;5.20;100.00
13422;BME280;6782;55.904;13.396;2023-02-13T07:57:12;102795.22;;;5.26;100.00
13422;BME280;6782;55.904;13.396;2023-02-13T07:59:39;102779.59;;;5.29;100.00
13422;BME280;6782;55.904;13.396;2023-02-13T08:02:10;102777.19;;;5.35;100.00
13422;BME280;6782;55.904;13.396;2023-02-13T08:04:40;102763.28;;;5.36;100.00
13422;BME280;6782;55.904;13.396;2023-02-13T08:07:10;102755.47;;;5.39;100.00
13422;BME280;6782;55.904;13.396;2023-02-13T08:09:38;102745.13;;;5.42;100.00
13422;BME280;6782;55.904;13.396;2023-02-13T08:12:22;102725.19;;;5.47;100.00
13422;BME280;6782;55.904;13.396;2023-02-13T08:14:51;102718.13;;;5.43;100.00
13422;BME280;6782;55.904;13.396;2023-02-13T08:17:18;102710.69;;;5.58;100.00
13422;BME280;6782;55.904;13.396;2023-02-13T08:19:47;102706.38;;;5.59;100.00
13422;BME280;6782;55.904;13.396;2023-02-13T08:22:14;102684.19;;;5.46;100.00
13422;BME280;6782;55.904;13.396;2023-02-13T08:24:42;102693.31;;;5.60;100.00
13422;BME280;6782;55.904;13.396;2023-02-13T08:27:11;102689.00;;;5.62;100.00
13422;BME280;6782;55.904;13.396;2023-02-13T08:29:53;102674.97;;;5.60;100.00
13422;BME280;6782;55.904;13.396;2023-02-13T08:32:21;102668.13;;;5.65;100.00
13422;BME280;6782;55.904;13.396;2023-02-13T08:34:50;102677.00;;;5.70;100.00
13422;BME280;6782;55.904;13.396;2023-02-13T08:37:17;102651.91;;;5.79;100.00
13422;BME280;6782;55.904;13.396;2023-02-13T08:39:44;102648.72;;;5.89;100.00
13422;BME280;6782;55.904;13.396;2023-02-13T08:42:11;102653.50;;;6.03;100.00
13422;BME280;6782;55.904;13.396;2023-02-13T08:44:39;102628.59;;;5.86;100.00
13422;BME280;6782;55.904;13.396;2023-02-13T08:47:07;102628.69;;;5.91;100.00
13422;BME280;6782;55.904;13.396;2023-02-13T08:49:34;102622.94;;;6.04;100.00
13422;BME280;6782;55.904;13.396;2023-02-13T08:52:03;102616.84;;;6.03;100.00
13422;BME280;6782;55.904;13.396;2023-02-13T08:54:32;102619.66;;;6.11;100.00
13422;BME280;6782;55.904;13.396;2023-02-13T08:56:59;102624.88;;;6.11;100.00
13422;BME280;6782;55.904;13.396;2023-02-13T08:59:26;102617.84;;;6.08;100.00
13422;BME280;6782;55.904;13.396;2023-02-13T09:01:53;102614.63;;;6.20;100.00
13422;BME280;6782;55.904;13.396;2023-02-13T09:04:20;102614.91;;;6.32;100.00
13422;BME280;6782;55.904;13.396;2023-02-13T09:06:47;102605.56;;;6.43;100.00
13422;BME280;6782;55.904;13.396;2023-02-13T09:09:16;102605.16;;;6.62;100.00
13422;BME280;6782;55.904;13.396;2023-02-13T09:11:46;102610.00;;;6.86;100.00
13422;BME280;6782;55.904;13.396;2023-02-13T09:14:13;102592.88;;;7.02;100.00
13422;BME280;6782;55.904;13.396;2023-02-13T09:16:40;102581.84;;;7.18;100.00
13422;BME280;6782;55.904;13.396;2023-02-13T09:19:07;102574.13;;;7.25;100.00
13422;BME280;6782;55.904;13.396;2023-02-13T09:21:34;102529.38;;;7.19;100.00
13422;BME280;6782;55.904;13.396;2023-02-13T09:24:01;102520.59;;;7.16;100.00
13422;BME280;6782;55.904;13.396;2023-02-13T09:26:33;102531.63;;;7.44;100.00
13422;BME280;6782;55.904;13.396;2023-02-13T09:29:00;102510.75;;;7.52;100.00
13422;BME280;6782;55.904;13.396;2023-02-13T09:31:27;102500.38;;;7.61;100.00
13422;BME280;6782;55.904;13.396;2023-02-13T09:33:54;102468.88;;;7.61;100.00
13422;BME280;6782;55.904;13.396;2023-02-13T09:36:22;102453.84;;;7.52;100.00
13422;BME280;6782;55.904;13.396;2023-02-13T09:38:52;102423.28;;;7.56;100.00
13422;BME280;6782;55.904;13.396;2023-02-13T09:41:21;102424.31;;;7.66;100.00
13422;BME280;6782;55.904;13.396;2023-02-13T09:43:54;102402.63;;;7.77;100.00
13422;BME280;6782;55.904;13.396;2023-02-13T09:46:27;102376.34;;;7.79;100.00
13422;BME280;6782;55.904;13.396;2023-02-13T09:48:59;102382.69;;;7.93;100.00
13422;BME280;6782;55.904;13.396;2023-02-13T09:51:27;102364.44;;;8.03;100.00
13422;BME280;6782;55.904;13.396;2023-02-13T09:54:00;102354.75;;;7.98;100.00
13422;BME280;6782;55.904;13.396;2023-02-13T09:56:39;102357.53;;;8.11;100.00
13422;BME280;6782;55.904;13.396;2023-02-13T09:59:28;102329.47;;;8.07;100.00
13422;BME280;6782;55.904;13.396;2023-02-13T10:02:07;102298.06;;;8.16;100.00
13422;BME280;6782;55.904;13.396;2023-02-13T10:04:47;102291.94;;;8.19;100.00
13422;BME280;6782;55.904;13.396;2023-02-13T10:07:35;102270.00;;;8.15;100.00
13422;BME280;6782;55.904;13.396;2023-02-13T10:10:13;102251.56;;;8.14;100.00
13422;BME280;6782;55.904;13.396;2023-02-13T10:12:55;102238.50;;;8.18;100.00
13422;BME280;6782;55.904;13.396;2023-02-13T10:15:35;102242.94;;;8.24;100.00
13422;BME280;6782;55.904;13.396;2023-02-13T10:18:09;102243.00;;;8.29;100.00
13422;BME280;6782;55.904;13.396;2023-02-13T10:20:44;102217.59;;;8.28;100.00
13422;BME280;6782;55.904;13.396;2023-02-13T10:23:21;102178.84;;;8.11;100.00
13422;BME280;6782;55.904;13.396;2023-02-13T10:25:55;102196.47;;;8.25;100.00
13422;BME280;6782;55.904;13.396;2023-02-13T10:28:37;102202.81;;;8.43;100.00
13422;BME280;6782;55.904;13.396;2023-02-13T10:31:09;102195.81;;;8.45;100.00
13422;BME280;6782;55.904;13.396;2023-02-13T10:33:45;102179.97;;;8.32;100.00
13422;BME280;6782;55.904;13.396;2023-02-13T10:36:17;102187.94;;;8.44;100.00
13422;BME280;6782;55.904;13.396;2023-02-13T10:38:55;102179.19;;;8.45;100.00
13422;BME280;6782;55.904;13.396;2023-02-13T10:41:24;102152.78;;;8.33;100.00
13422;BME280;6782;55.904;13.396;2023-02-13T10:44:15;102127.34;;;8.30;100.00
13422;BME280;6782;55.904;13.396;2023-02-13T10:46:55;102131.78;;;8.37;100.00
13422;BME280;6782;55.904;13.396;2023-02-13T10:49:34;102125.75;;;8.49;100.00
13422;BME280;6782;55.904;13.396;2023-02-13T10:52:09;102110.84;;;8.46;100.00
13422;BME280;6782;55.904;13.396;2023-02-13T10:55:09;102105.63;;;8.49;100.00
13422;BME280;6782;55.904;13.396;2023-02-13T10:58:06;102102.09;;;8.49;100.00
13422;BME280;6782;55.904;13.396;2023-02-13T11:01:00;102110.88;;;8.55;100.00
13422;BME280;6782;55.904;13.396;2023-02-13T11:04:02;102085.47;;;8.56;100.00
13422;BME280;6782;55.904;13.396;2023-02-13T11:06:55;102041.56;;;8.43;100.00
13422;BME280;6782;55.904;13.396;2023-02-13T11:09:46;102063.59;;;8.57;100.00
13422;BME280;6782;55.904;13.396;2023-02-13T11:12:34;102047.81;;;8.63;100.00
13422;BME280;6782;55.904;13.396;2023-02-13T11:15:24;102033.00;;;8.72;100.00
13422;BME280;6782;55.904;13.396;2023-02-13T11:18:17;102034.78;;;8.78;100.00
13422;BME280;6782;55.904;13.396;2023-02-13T11:21:06;102019.84;;;8.72;100.00
13422;BME280;6782;55.904;13.396;2023-02-13T11:23:38;102011.09;;;8.81;100.00
13422;BME280;6782;55.904;13.396;2023-02-13T11:26:08;101990.88;;;8.69;100.00
13422;BME280;6782;55.904;13.396;2023-02-13T11:28:43;102020.81;;;9.00;100.00
13422;BME280;6782;55.904;13.396;2023-02-13T11:31:23;101991.88;;;8.97;100.00
13422;BME280;6782;55.904;13.396;2023-02-13T11:33:51;101950.63;;;8.92;100.00
13422;BME280;6782;55.904;13.396;2023-02-13T11:36:25;101922.53;;;8.80;100.00
13422;BME280;6782;55.904;13.396;2023-02-13T11:39:00;101949.75;;;8.94;100.00
13422;BME280;6782;55.904;13.396;2023-02-13T11:41:29;101944.50;;;8.97;100.00
13422;BME280;6782;55.904;13.396;2023-02-13T11:43:57;101893.63;;;8.95;100.00
13422;BME280;6782;55.904;13.396;2023-02-13T11:46:41;101909.44;;;8.95;100.00
13422;BME280;6782;55.904;13.396;2023-02-13T11:49:17;101886.59;;;8.91;100.00
13422;BME280;6782;55.904;13.396;2023-02-13T11:51:48;101908.56;;;9.04;100.00
13422;BME280;6782;55.904;13.396;2023-02-13T11:54:22;101896.28;;;9.10;100.00
13422;BME280;6782;55.904;13.396;2023-02-13T11:57:18;101882.25;;;9.13;100.00
13422;BME280;6782;55.904;13.396;2023-02-13T11:59:48;101890.16;;;9.20;100.00
13422;BME280;6782;55.904;13.396;2023-02-13T12:02:17;101921.75;;;9.44;100.00
13422;BME280;6782;55.904;13.396;2023-02-13T12:04:47;101885.75;;;9.37;100.00
13422;BME280;6782;55.904;13.396;2023-02-13T12:07:19;101847.16;;;9.33;100.00
13422;BME280;6782;55.904;13.396;2023-02-13T12:09:52;101869.06;;;9.51;100.00
13422;BME280;6782;55.904;13.396;2023-02-13T12:12:26;101817.31;;;9.43;100.00
13422;BME280;6782;55.904;13.396;2023-02-13T12:14:55;101780.47;;;9.36;100.00
13422;BME280;6782;55.904;13.396;2023-02-13T12:17:26;101724.38;;;9.01;100.00
13422;BME280;6782;55.904;13.396;2023-02-13T12:19:56;101766.47;;;9.13;100.00
13422;BME280;6782;55.904;13.396;2023-02-13T12:22:38;101795.41;;;9.23;100.00
13422;BME280;6782;55.904;13.396;2023-02-13T12:25:24;101730.50;;;9.04;100.00
13422;BME280;6782;55.904;13.396;2023-02-13T12:28:05;101751.56;;;8.92;100.00
13422;BME280;6782;55.904;13.396;2023-02-13T12:30:44;101814.69;;;9.12;100.00
13422;BME280;6782;55.904;13.396;2023-02-13T12:33:24;101804.19;;;9.13;100.00
13422;BME280;6782;55.904;13.396;2023-02-13T12:35:59;101790.16;;;9.08;100.00
13422;BME280;6782;55.904;13.396;2023-02-13T12:38:43;101820.84;;;9.26;100.00
13422;BME280;6782;55.904;13.396;2023-02-13T12:41:16;101807.69;;;9.21;100.00
13422;BME280;6782;55.904;13.396;2023-02-13T12:44:06;101769.97;;;9.18;100.00
13422;BME280;6782;55.904;13.396;2023-02-13T12:46:40;101730.50;;;9.07;100.00
13422;BME280;6782;55.904;13.396;2023-02-13T12:49:20;101749.81;;;8.94;100.00
13422;BME280;6782;55.904;13.396;2023-02-13T12:51:56;101805.94;;;9.02;100.00
13422;BME280;6782;55.904;13.396;2023-02-13T12:54:43;101850.66;;;9.02;100.00
13422;BME280;6782;55.904;13.396;2023-02-13T12:57:23;101908.59;;;9.19;100.00
13422;BME280;6782;55.904;13.396;2023-02-13T13:00:02;101926.13;;;9.14;100.00
13422;BME280;6782;55.904;13.396;2023-02-13T13:02:52;101895.41;;;9.02;100.00
13422;BME280;6782;55.904;13.396;2023-02-13T13:05:31;101904.16;;;9.04;100.00
13422;BME280;6782;55.904;13.396;2023-02-13T13:08:24;101957.69;;;9.11;100.00
13422;BME280;6782;55.904;13.396;2023-02-13T13:11:16;101930.44;;;8.89;100.00
13422;BME280;6782;55.904;13.396;2023-02-13T13:13:55;101973.44;;;8.93;100.00
13422;BME280;6782;55.904;13.396;2023-02-13T13:16:30;101970.78;;;8.91;100.00
13422;BME280;6782;55.904;13.396;2023-02-13T13:19:10;101995.38;;;8.99;100.00
13422;BME280;6782;55.904;13.396;2023-02-13T13:21:45;101994.50;;;8.97;100.00
13422;BME280;6782;55.904;13.396;2023-02-13T13:24:32;102019.94;;;8.98;100.00
13422;BME280;6782;55.904;13.396;2023-02-13T13:27:11;102033.94;;;8.94;100.00
13422;BME280;6782;55.904;13.396;2023-02-13T13:29:44;102028.69;;;8.88;100.00
13422;BME280;6782;55.904;13.396;2023-02-13T13:32:15;102076.91;;;8.92;100.00
13422;BME280;6782;55.904;13.396;2023-02-13T13:34:44;102102.41;;;9.03;100.00
13422;BME280;6782;55.904;13.396;2023-02-13T13:37:20;102065.56;;;9.00;100.00
13422;BME280;6782;55.904;13.396;2023-02-13T13:39:55;102034.78;;;8.84;100.00
13422;BME280;6782;55.904;13.396;2023-02-13T13:42:33;102072.50;;;8.89;100.00
13422;BME280;6782;55.904;13.396;2023-02-13T13:45:34;102063.69;;;8.81;100.00
13422;BME280;6782;55.904;13.396;2023-02-13T13:48:32;102096.22;;;8.91;100.00
13422;BME280;6782;55.904;13.396;2023-02-13T13:51:04;102065.50;;;8.85;100.00
13422;BME280;6782;55.904;13.396;2023-02-13T13:53:32;102079.47;;;8.81;100.00
13422;BME280;6782;55.904;13.396;2023-02-13T13:56:06;102126.94;;;8.93;100.00
13422;BME280;6782;55.904;13.396;2023-02-13T13:58:39;102107.53;;;8.73;100.00
13422;BME280;6782;55.904;13.396;2023-02-13T14:01:24;102139.03;;;8.67;100.00
13422;BME280;6782;55.904;13.396;2023-02-13T14:03:54;102189.13;;;8.80;100.00
13422;BME280;6782;55.904;13.396;2023-02-13T14:06:24;102214.59;;;8.88;100.00
13422;BME280;6782;55.904;13.396;2023-02-13T14:09:08;102199.63;;;8.80;100.00
13422;BME280;6782;55.904;13.396;2023-02-13T14:11:55;102230.25;;;8.74;100.00
13422;BME280;6782;55.904;13.396;2023-02-13T14:14:52;102217.88;;;8.61;100.00